createdAt,value
2022-10-25T00:01:45.270Z,7.95
2022-10-25T00:05:13.364Z,6.75
2022-10-25T00:08:36.273Z,7.35
2022-10-25T00:11:59.174Z,7.90
2022-10-25T00:15:22.370Z,8.85
2022-10-25T00:18:45.425Z,5.53
2022-10-25T00:22:09.668Z,4.47
2022-10-25T00:25:32.570Z,6.10
2022-10-25T00:28:56.047Z,7.22
2022-10-25T00:32:18.931Z,5.93
2022-10-25T00:35:41.779Z,8.35
2022-10-25T00:39:06.282Z,10.23
2022-10-25T00:42:29.190Z,6.07
2022-10-25T00:45:52.176Z,13.98
2022-10-25T00:49:19.985Z,4.10
2022-10-25T00:52:45.970Z,6.18
2022-10-25T00:56:17.568Z,7.97
2022-10-25T00:59:42.211Z,6.43
2022-10-25T01:03:06.618Z,4.00
2022-10-25T01:06:35.133Z,9.88
2022-10-25T01:09:58.924Z,6.25
2022-10-25T01:13:23.436Z,4.50
2022-10-25T01:16:56.854Z,4.47
2022-10-25T01:20:57.989Z,3.92
2022-10-25T01:24:56.401Z,4.85
2022-10-25T01:28:31.921Z,4.60
2022-10-25T01:32:01.971Z,6.20
2022-10-25T01:35:29.934Z,3.83
2022-10-25T01:39:02.390Z,6.60
2022-10-25T01:42:33.584Z,5.80
2022-10-25T01:46:01.934Z,6.75
2022-10-25T01:49:36.122Z,3.78
2022-10-25T01:52:59.074Z,5.07
2022-10-25T01:56:27.134Z,13.40
2022-10-25T02:00:03.765Z,5.35
2022-10-25T02:03:40.586Z,15.35
2022-10-25T02:07:09.221Z,6.70
2022-10-25T02:10:39.298Z,7.32
2022-10-25T02:14:13.377Z,6.22
2022-10-25T02:17:41.754Z,5.88
2022-10-25T02:21:06.321Z,6.45
2022-10-25T02:24:32.830Z,3.65
2022-10-25T02:27:58.284Z,7.32
2022-10-25T02:31:23.289Z,7.93
2022-10-25T02:34:49.000Z,7.03
2022-10-25T02:38:12.223Z,7.43
2022-10-25T02:41:36.444Z,6.57
2022-10-25T02:44:59.313Z,5.85
2022-10-25T02:48:22.216Z,4.20
2022-10-25T02:51:45.172Z,8.80
2022-10-25T02:55:08.884Z,5.80
2022-10-25T02:58:35.362Z,5.60
2022-10-25T03:01:58.282Z,5.03
2022-10-25T03:05:21.292Z,3.20
2022-10-25T03:08:45.088Z,3.72
2022-10-25T03:12:08.188Z,4.22
2022-10-25T03:15:32.407Z,3.78
2022-10-25T03:18:57.878Z,6.95
2022-10-25T03:22:20.776Z,3.95
2022-10-25T03:25:43.741Z,7.35
2022-10-25T03:29:06.744Z,1.88
2022-10-25T03:32:30.970Z,3.50
2022-10-25T03:35:55.018Z,4.72
2022-10-25T03:39:17.906Z,6.93
2022-10-25T03:42:40.832Z,8.00
2022-10-25T03:46:03.765Z,4.25
2022-10-25T03:49:28.122Z,4.45
2022-10-25T03:52:51.726Z,2.92
2022-10-25T03:56:14.621Z,1.90
2022-10-25T03:59:37.502Z,4.05
2022-10-25T04:03:02.498Z,4.07
2022-10-25T04:06:27.012Z,6.22
2022-10-25T04:09:49.960Z,11.63
2022-10-25T04:13:12.843Z,3.65
2022-10-25T04:16:35.717Z,11.05
2022-10-25T04:19:58.604Z,5.93
2022-10-25T04:23:22.820Z,8.15
2022-10-25T04:26:45.796Z,7.40
2022-10-25T04:30:09.708Z,8.48
2022-10-25T04:33:32.642Z,10.18
2022-10-25T04:36:55.578Z,7.32
2022-10-25T04:40:22.691Z,12.20
2022-10-25T04:43:48.029Z,8.15
2022-10-25T04:47:11.358Z,6.07
2022-10-25T04:50:34.269Z,11.70
2022-10-25T04:53:57.657Z,12.38
2022-10-25T04:57:21.936Z,20.92
2022-10-25T05:00:47.521Z,19.80
2022-10-25T05:04:10.409Z,26.55
2022-10-25T05:07:33.261Z,18.90
2022-10-25T05:10:56.448Z,24.20
2022-10-25T05:14:20.912Z,21.02
2022-10-25T05:17:43.824Z,18.73
2022-10-25T05:21:07.642Z,18.05
2022-10-25T05:24:30.558Z,23.63
2022-10-25T05:27:53.454Z,17.48
2022-10-25T05:31:19.436Z,18.55
2022-10-25T05:34:42.295Z,9.98
2022-10-25T05:38:05.208Z,20.50
2022-10-25T05:41:29.733Z,11.65
2022-10-25T05:44:55.324Z,13.05
2022-10-25T05:48:19.949Z,13.52
2022-10-25T05:51:42.836Z,15.82
2022-10-25T05:55:06.521Z,14.02
2022-10-25T05:58:29.390Z,15.85
2022-10-25T06:01:52.419Z,17.17
2022-10-25T06:05:16.889Z,15.95
2022-10-25T06:08:40.399Z,12.45
2022-10-25T06:12:05.017Z,9.30
2022-10-25T06:15:30.386Z,15.98
2022-10-25T06:18:54.419Z,14.70
2022-10-25T06:22:18.703Z,13.13
2022-10-25T06:25:41.589Z,17.35
2022-10-25T06:29:06.295Z,12.85
2022-10-25T06:32:29.756Z,11.88
2022-10-25T06:35:56.723Z,9.73
2022-10-25T06:39:20.981Z,14.75
2022-10-25T06:42:44.250Z,10.57
2022-10-25T06:46:08.491Z,9.02
2022-10-25T06:49:31.375Z,12.82
2022-10-25T06:52:54.250Z,8.30
2022-10-25T06:56:18.510Z,11.98
2022-10-25T06:59:41.397Z,8.32
2022-10-25T07:03:04.280Z,9.45
2022-10-25T07:06:29.330Z,12.65
2022-10-25T07:09:52.297Z,13.88
2022-10-25T07:13:16.496Z,9.32
2022-10-25T07:16:39.389Z,8.65
2022-10-25T07:20:02.478Z,8.88
2022-10-25T07:23:25.336Z,8.40
2022-10-25T07:26:48.203Z,12.48
2022-10-25T07:30:13.204Z,11.23
2022-10-25T07:33:36.117Z,9.38
2022-10-25T07:36:59.021Z,6.53
2022-10-25T07:40:21.980Z,8.05
2022-10-25T07:43:45.020Z,6.40
2022-10-25T07:47:09.261Z,7.15
2022-10-25T07:50:32.349Z,7.90
2022-10-25T07:53:55.249Z,5.53
2022-10-25T07:57:18.157Z,9.05
2022-10-25T08:00:41.077Z,5.97
2022-10-25T08:04:05.457Z,8.07
2022-10-25T08:07:28.582Z,9.15
2022-10-25T08:10:53.343Z,14.57
2022-10-25T08:14:16.401Z,9.63
2022-10-25T08:17:39.349Z,6.30
2022-10-25T08:21:04.635Z,10.80
2022-10-25T08:24:27.646Z,14.07
2022-10-25T08:27:50.570Z,12.02
2022-10-25T08:31:13.474Z,6.25
2022-10-25T08:34:36.346Z,6.10
2022-10-25T08:38:02.945Z,15.68
2022-10-25T08:41:34.563Z,7.28
2022-10-25T08:45:04.029Z,7.28
2022-10-25T08:48:31.420Z,8.82
2022-10-25T08:51:56.573Z,9.68
2022-10-25T08:55:24.483Z,6.78
2022-10-25T08:58:51.813Z,6.80
2022-10-25T09:02:21.953Z,8.02
2022-10-25T09:05:54.376Z,5.20
2022-10-25T09:09:30.089Z,11.05
2022-10-25T09:13:01.298Z,9.82
2022-10-25T09:16:32.321Z,6.20
2022-10-25T09:20:05.379Z,7.22
2022-10-25T09:23:31.135Z,10.43
2022-10-25T09:27:04.911Z,6.07
2022-10-25T09:30:35.379Z,7.55
2022-10-25T09:34:04.267Z,6.65
2022-10-25T09:37:32.209Z,5.78
2022-10-25T09:41:02.055Z,11.02
2022-10-25T09:44:36.904Z,8.82
2022-10-25T09:48:09.004Z,15.80
2022-10-25T09:51:36.916Z,10.23
2022-10-25T09:55:14.645Z,5.55
2022-10-25T09:58:41.003Z,8.82
2022-10-25T10:02:04.113Z,9.27
2022-10-25T10:05:28.704Z,12.32
2022-10-25T10:08:55.509Z,12.07
2022-10-25T10:12:24.041Z,5.90
2022-10-25T10:15:53.695Z,9.43
2022-10-25T10:19:19.063Z,7.88
2022-10-25T10:26:24.303Z,7.57
2022-10-25T10:29:56.827Z,10.73
2022-10-25T10:33:19.772Z,7.13
2022-10-25T10:36:45.732Z,5.18
2022-10-25T10:40:25.426Z,4.93
2022-10-25T10:43:48.329Z,7.28
2022-10-25T10:47:13.423Z,6.78
2022-10-25T10:50:36.622Z,7.97
2022-10-25T10:53:59.819Z,7.28
2022-10-25T10:57:30.449Z,7.85
2022-10-25T11:00:56.943Z,5.97
2022-10-25T11:04:21.856Z,10.40
2022-10-25T11:07:46.149Z,5.90
2022-10-25T11:11:16.332Z,3.67
2022-10-25T11:14:40.648Z,12.15
2022-10-25T11:18:07.279Z,8.13
2022-10-25T11:21:45.364Z,5.75
2022-10-25T11:25:21.749Z,6.00
2022-10-25T11:28:53.306Z,6.15
2022-10-25T11:32:51.255Z,7.78
2022-10-25T11:36:25.746Z,5.07
2022-10-25T11:39:59.606Z,4.05
2022-10-25T11:43:48.642Z,9.63
2022-10-25T11:47:24.523Z,5.25
2022-10-25T11:50:59.701Z,4.45
2022-10-25T11:54:31.911Z,5.45
2022-10-25T11:58:05.613Z,5.88
2022-10-25T12:01:42.272Z,9.88
2022-10-25T12:05:22.662Z,12.90
2022-10-25T12:09:02.704Z,6.93
2022-10-25T12:12:31.043Z,10.63
2022-10-25T12:15:57.425Z,7.72
2022-10-25T12:19:24.527Z,5.53
2022-10-25T12:22:50.788Z,8.85
2022-10-25T12:26:31.246Z,6.93
2022-10-25T12:29:57.793Z,5.90
2022-10-25T12:33:30.366Z,10.23
2022-10-25T12:36:57.804Z,8.65
2022-10-25T12:44:06.037Z,11.77
2022-10-25T12:47:41.808Z,9.68
2022-10-25T12:51:18.789Z,9.90
2022-10-25T12:55:04.003Z,8.07
2022-10-25T12:58:51.000Z,6.90
2022-10-25T13:02:45.258Z,7.38
2022-10-25T13:06:30.748Z,8.82
2022-10-25T13:09:55.478Z,6.43
2022-10-25T13:13:23.469Z,6.25
2022-10-25T13:16:46.956Z,7.80
2022-10-25T13:20:47.210Z,5.40
2022-10-25T13:24:11.506Z,9.65
2022-10-25T13:27:35.960Z,6.55
2022-10-25T13:31:45.966Z,7.20
2022-10-25T13:35:52.745Z,11.57
2022-10-25T13:39:24.384Z,8.75
2022-10-25T13:42:50.231Z,6.97
2022-10-25T13:46:15.710Z,11.65
2022-10-25T13:49:43.766Z,9.20
2022-10-25T13:53:15.596Z,14.32
2022-10-25T13:56:51.392Z,8.43
2022-10-25T14:00:32.715Z,16.50
2022-10-25T14:04:06.626Z,14.82
2022-10-25T14:07:52.960Z,8.63
2022-10-25T14:11:20.824Z,10.07
2022-10-25T14:14:53.352Z,14.32
2022-10-25T14:18:21.543Z,7.78
2022-10-25T14:21:47.639Z,13.75
2022-10-25T14:25:22.189Z,9.27
2022-10-25T14:28:45.143Z,6.90
2022-10-25T14:32:14.257Z,15.82
2022-10-25T14:35:47.343Z,10.68
2022-10-25T14:39:18.768Z,12.10
2022-10-25T14:42:41.771Z,9.43
2022-10-25T14:46:14.156Z,12.05
2022-10-25T14:49:38.565Z,10.13
2022-10-25T14:53:01.788Z,9.00
2022-10-25T14:56:28.878Z,13.35
2022-10-25T15:03:20.742Z,16.30
2022-10-25T15:06:48.762Z,9.80
2022-10-25T15:10:35.133Z,10.45
2022-10-25T15:13:58.194Z,12.15
2022-10-25T15:17:28.475Z,11.60
2022-10-25T15:21:01.998Z,9.57
2022-10-25T15:24:28.677Z,7.53
2022-10-25T15:27:54.570Z,9.63
2022-10-25T15:31:24.564Z,11.18
2022-10-25T15:34:50.381Z,14.23
2022-10-25T15:38:13.260Z,8.98
2022-10-25T15:41:37.473Z,12.85
2022-10-25T15:45:00.575Z,11.18
2022-10-25T15:48:26.149Z,12.48
2022-10-25T15:51:49.321Z,9.27
2022-10-25T15:55:20.308Z,6.50
2022-10-25T15:58:44.596Z,10.50
2022-10-25T16:02:16.254Z,13.20
2022-10-25T16:05:39.899Z,11.35
2022-10-25T16:09:02.764Z,14.48
2022-10-25T16:12:31.353Z,8.95
2022-10-25T16:15:55.687Z,14.15
2022-10-25T16:19:21.462Z,9.75
2022-10-25T16:22:44.424Z,8.63
2022-10-25T16:26:07.689Z,11.18
2022-10-25T16:29:30.674Z,8.93
2022-10-25T16:32:54.910Z,10.70
2022-10-25T16:36:17.843Z,7.00
2022-10-25T16:39:40.764Z,15.52
2022-10-25T16:43:03.788Z,13.18
2022-10-25T16:46:26.850Z,8.52
2022-10-25T16:49:51.626Z,6.95
2022-10-25T16:53:14.829Z,7.97
2022-10-25T16:56:37.699Z,11.65
2022-10-25T17:00:00.559Z,25.20
2022-10-25T17:03:23.420Z,17.80
2022-10-25T17:06:47.852Z,11.50
2022-10-25T17:10:11.039Z,11.85
2022-10-25T17:13:33.921Z,11.48
2022-10-25T17:17:00.822Z,13.63
2022-10-25T17:20:26.290Z,10.05
2022-10-25T17:23:50.533Z,16.92
2022-10-25T17:27:13.428Z,20.92
2022-10-25T17:30:36.371Z,21.65
2022-10-25T17:34:00.535Z,23.40
2022-10-25T17:37:23.523Z,17.52
2022-10-25T17:40:48.079Z,15.70
2022-10-25T17:44:11.652Z,11.15
2022-10-25T17:47:37.309Z,17.33
2022-10-25T17:51:03.938Z,17.55
2022-10-25T17:54:26.847Z,30.83
2022-10-25T17:57:51.746Z,24.63
2022-10-25T18:01:16.609Z,13.48
2022-10-25T18:04:53.638Z,10.98
2022-10-25T18:08:22.731Z,33.38
2022-10-25T18:11:46.003Z,20.60
2022-10-25T18:15:10.990Z,21.73
2022-10-25T18:18:33.957Z,21.55
2022-10-25T18:22:00.305Z,20.38
2022-10-25T18:25:23.241Z,14.57
2022-10-25T18:28:46.126Z,23.83
2022-10-25T18:32:10.526Z,20.83
2022-10-25T18:35:33.434Z,19.67
2022-10-25T18:38:56.649Z,26.40
2022-10-25T18:42:19.520Z,26.13
2022-10-25T18:45:44.465Z,21.65
2022-10-25T18:49:08.763Z,17.95
2022-10-25T18:52:31.695Z,26.15
2022-10-25T18:55:54.666Z,28.98
2022-10-25T18:59:17.547Z,18.85
2022-10-25T19:02:40.809Z,25.30
2022-10-25T19:06:07.042Z,17.80
2022-10-25T19:09:29.926Z,23.55
2022-10-25T19:12:52.892Z,14.15
2022-10-25T19:16:16.633Z,20.25
2022-10-25T19:19:39.536Z,27.63
2022-10-25T19:23:03.798Z,10.15
2022-10-25T19:26:26.691Z,26.20
2022-10-25T19:29:49.648Z,29.35
2022-10-25T19:33:12.597Z,18.15
2022-10-25T19:36:35.603Z,19.05
2022-10-25T19:40:00.209Z,10.85
2022-10-25T19:43:23.131Z,18.00
2022-10-25T19:46:46.232Z,15.02
2022-10-25T19:50:09.605Z,22.13
2022-10-25T19:53:32.810Z,11.75
2022-10-25T19:56:57.166Z,18.00
2022-10-25T20:00:20.240Z,17.02
2022-10-25T20:03:44.327Z,16.58
2022-10-25T20:07:07.421Z,14.02
2022-10-25T20:10:30.477Z,17.20
2022-10-25T20:13:55.968Z,15.57
2022-10-25T20:17:19.102Z,12.82
2022-10-25T20:20:42.204Z,20.63
2022-10-25T20:24:07.547Z,15.73
2022-10-25T20:27:32.128Z,7.65
2022-10-25T20:31:03.152Z,11.95
2022-10-25T20:34:26.217Z,12.45
2022-10-25T20:37:49.429Z,12.48
2022-10-25T20:41:14.403Z,17.75
2022-10-25T20:44:37.400Z,14.10
2022-10-25T20:48:01.720Z,8.90
2022-10-25T20:51:24.780Z,8.90
2022-10-25T20:54:47.757Z,15.60
2022-10-25T20:58:11.021Z,18.90
2022-10-25T21:01:34.024Z,7.72
2022-10-25T21:04:58.462Z,9.35
2022-10-25T21:08:22.848Z,14.75
2022-10-25T21:11:45.754Z,14.20
2022-10-25T21:15:11.934Z,11.45
2022-10-25T21:18:36.048Z,18.83
2022-10-25T21:22:00.531Z,11.63
2022-10-25T21:25:23.808Z,9.07
2022-10-25T21:28:46.680Z,8.68
2022-10-25T21:32:09.740Z,14.02
2022-10-25T21:35:33.758Z,7.68
2022-10-25T21:38:58.227Z,12.50
2022-10-25T21:42:21.161Z,7.95
2022-10-25T21:45:44.105Z,11.10
2022-10-25T21:49:07.039Z,14.20
2022-10-25T21:52:29.951Z,12.13
2022-10-25T21:56:04.262Z,8.55
2022-10-25T21:59:27.541Z,8.10
2022-10-25T22:02:50.568Z,8.48
2022-10-25T22:06:14.888Z,5.85
2022-10-25T22:09:37.861Z,10.30
2022-10-25T22:13:02.108Z,13.88
2022-10-25T22:16:25.570Z,12.35
2022-10-25T22:19:48.489Z,6.82
2022-10-25T22:23:11.405Z,11.60
2022-10-25T22:26:34.301Z,9.05
2022-10-25T22:29:58.545Z,12.68
2022-10-25T22:33:21.412Z,10.20
2022-10-25T22:36:44.271Z,8.20
2022-10-25T22:40:08.142Z,11.82
2022-10-25T22:43:31.365Z,5.15
2022-10-25T22:46:55.645Z,7.95
2022-10-25T22:50:18.659Z,8.60
2022-10-25T22:53:42.562Z,9.63
2022-10-25T22:57:05.591Z,7.75
2022-10-25T23:00:28.519Z,7.78
2022-10-25T23:03:54.620Z,3.55
2022-10-25T23:07:17.726Z,5.72
2022-10-25T23:10:40.619Z,8.25
2022-10-25T23:14:05.107Z,10.45
2022-10-25T23:17:27.965Z,7.22
2022-10-25T23:20:53.134Z,5.60
2022-10-25T23:24:16.061Z,5.85
2022-10-25T23:27:38.965Z,6.03
2022-10-25T23:31:06.375Z,3.75
2022-10-25T23:34:31.007Z,9.63
2022-10-25T23:37:55.408Z,5.40
2022-10-25T23:41:19.331Z,6.97
2022-10-25T23:44:42.205Z,5.90
2022-10-25T23:48:05.451Z,10.07
2022-10-25T23:51:28.380Z,13.07
2022-10-25T23:54:52.994Z,6.13
2022-10-25T23:58:15.956Z,9.27
